createdAt,value
2022-09-14T00:01:31.474Z,84.90
2022-09-14T00:04:03.454Z,84.90
2022-09-14T00:06:32.128Z,84.90
2022-09-14T00:09:02.185Z,84.90
2022-09-14T00:11:32.231Z,85.00
2022-09-14T00:14:01.809Z,85.00
2022-09-14T00:16:32.892Z,85.10
2022-09-14T00:19:06.041Z,85.10
2022-09-14T00:21:34.805Z,85.10
2022-09-14T00:24:05.027Z,85.00
2022-09-14T00:26:32.925Z,85.00
2022-09-14T00:29:04.379Z,84.90
2022-09-14T00:31:33.623Z,84.80
2022-09-14T00:34:02.636Z,84.80
2022-09-14T00:36:31.712Z,84.80
2022-09-14T00:39:00.572Z,84.70
2022-09-14T00:41:33.650Z,84.70
2022-09-14T00:44:04.664Z,84.70
2022-09-14T00:46:36.144Z,84.70
2022-09-14T00:49:09.551Z,84.70
2022-09-14T00:51:41.035Z,84.70
2022-09-14T00:54:09.280Z,84.70
2022-09-14T00:56:38.679Z,84.70
2022-09-14T00:59:11.501Z,84.70
2022-09-14T01:01:39.493Z,84.70
2022-09-14T01:04:07.380Z,84.70
2022-09-14T01:06:41.842Z,84.70
2022-09-14T01:09:21.497Z,84.70
2022-09-14T01:12:10.268Z,84.70
2022-09-14T01:14:45.036Z,84.80
2022-09-14T01:17:17.607Z,84.80
2022-09-14T01:20:10.986Z,84.80
2022-09-14T01:22:44.509Z,84.80
2022-09-14T01:25:29.145Z,84.90
2022-09-14T01:28:01.627Z,84.90
2022-09-14T01:30:32.901Z,85.00
2022-09-14T01:33:05.885Z,85.00
2022-09-14T01:35:39.760Z,85.00
2022-09-14T01:38:12.314Z,85.10
2022-09-14T01:40:43.288Z,85.20
2022-09-14T01:43:18.932Z,85.20
2022-09-14T01:45:51.276Z,85.20
2022-09-14T01:48:24.385Z,85.10
2022-09-14T01:50:57.197Z,85.10
2022-09-14T01:53:31.615Z,85.10
2022-09-14T01:56:03.458Z,85.20
2022-09-14T01:58:37.693Z,85.30
2022-09-14T02:01:08.742Z,85.40
2022-09-14T02:03:42.865Z,85.60
2022-09-14T02:06:16.960Z,85.60
2022-09-14T02:08:44.869Z,85.60
2022-09-14T02:11:12.984Z,85.60
2022-09-14T02:13:43.515Z,85.60
2022-09-14T02:16:11.828Z,85.60
2022-09-14T02:18:40.008Z,85.60
2022-09-14T02:21:13.114Z,85.60
2022-09-14T02:23:41.090Z,85.60
2022-09-14T02:26:09.337Z,85.60
2022-09-14T02:28:37.263Z,85.60
2022-09-14T02:31:17.972Z,85.60
2022-09-14T02:33:53.827Z,85.60
2022-09-14T02:36:29.581Z,85.60
2022-09-14T02:39:02.497Z,85.60
2022-09-14T02:41:39.731Z,85.60
2022-09-14T02:44:18.202Z,85.60
2022-09-14T02:46:56.164Z,85.70
2022-09-14T02:49:38.357Z,85.70
2022-09-14T02:52:14.074Z,85.70
2022-09-14T02:54:49.309Z,85.70
2022-09-14T02:57:17.439Z,85.80
2022-09-14T02:59:45.314Z,85.80
2022-09-14T03:02:14.959Z,85.80
2022-09-14T03:04:42.918Z,85.80
2022-09-14T03:07:10.776Z,85.80
2022-09-14T03:09:38.710Z,85.90
2022-09-14T03:12:06.841Z,85.90
2022-09-14T03:14:34.884Z,85.90
2022-09-14T03:17:02.752Z,85.90
2022-09-14T03:19:31.975Z,85.90
2022-09-14T03:21:59.987Z,85.90
2022-09-14T03:24:27.979Z,86.00
2022-09-14T03:26:55.828Z,86.10
2022-09-14T03:29:23.885Z,86.30
2022-09-14T03:31:51.821Z,86.30
2022-09-14T03:34:19.741Z,86.40
2022-09-14T03:36:48.980Z,86.30
2022-09-14T03:39:16.883Z,86.30
2022-09-14T03:41:44.890Z,86.30
2022-09-14T03:44:12.725Z,86.40
2022-09-14T03:46:40.800Z,86.50
2022-09-14T03:49:08.651Z,86.50
2022-09-14T03:51:36.555Z,86.40
2022-09-14T03:54:05.828Z,86.40
2022-09-14T03:56:33.816Z,86.30
2022-09-14T03:59:01.653Z,86.20
2022-09-14T04:01:29.648Z,86.20
2022-09-14T04:03:57.510Z,86.20
2022-09-14T04:06:26.094Z,86.10
2022-09-14T04:08:55.248Z,86.30
2022-09-14T04:11:26.075Z,86.30
2022-09-14T04:13:54.420Z,86.30
2022-09-14T04:16:23.067Z,86.30
2022-09-14T04:18:51.049Z,86.20
2022-09-14T04:21:21.768Z,86.20
2022-09-14T04:26:39.077Z,86.30
2022-09-14T04:29:07.169Z,86.30
2022-09-14T04:31:35.984Z,86.40
2022-09-14T04:34:04.000Z,86.40
2022-09-14T04:36:32.209Z,86.30
2022-09-14T04:39:01.789Z,86.20
2022-09-14T04:41:31.308Z,86.20
2022-09-14T04:44:00.875Z,86.10
2022-09-14T04:46:31.159Z,86.20
2022-09-14T04:48:59.791Z,86.40
2022-09-14T04:51:29.751Z,86.50
2022-09-14T04:53:59.189Z,86.50
2022-09-14T04:56:28.128Z,86.40
2022-09-14T04:58:58.453Z,86.40
2022-09-14T05:01:30.599Z,86.40
2022-09-14T05:03:58.842Z,86.30
2022-09-14T05:06:28.657Z,86.30
2022-09-14T05:08:57.627Z,86.30
2022-09-14T05:11:27.189Z,86.30
2022-09-14T05:13:56.666Z,86.20
2022-09-14T05:16:27.715Z,86.20
2022-09-14T05:18:57.028Z,86.00
2022-09-14T05:21:25.636Z,86.00
2022-09-14T05:23:57.936Z,86.10
2022-09-14T05:26:27.032Z,86.20
2022-09-14T05:28:56.953Z,86.20
2022-09-14T05:31:27.583Z,86.30
2022-09-14T05:33:55.651Z,86.40
2022-09-14T05:36:23.922Z,86.40
2022-09-14T05:38:52.614Z,86.40
2022-09-14T05:41:20.648Z,86.40
2022-09-14T05:43:48.535Z,86.40
2022-09-14T05:46:20.192Z,86.40
2022-09-14T05:48:51.678Z,86.30
2022-09-14T05:51:21.470Z,86.30
2022-09-14T05:53:50.266Z,86.20
2022-09-14T05:56:19.599Z,86.20
2022-09-14T05:58:48.255Z,86.20
2022-09-14T06:01:17.988Z,86.30
2022-09-14T06:03:46.813Z,86.30
2022-09-14T06:06:18.569Z,86.30
2022-09-14T06:08:50.112Z,86.30
2022-09-14T06:11:20.401Z,86.30
2022-09-14T06:13:49.736Z,86.30
2022-09-14T06:16:19.907Z,86.30
2022-09-14T06:18:48.679Z,86.30
2022-09-14T06:21:20.991Z,86.30
2022-09-14T06:23:50.275Z,86.20
2022-09-14T06:26:18.262Z,86.10
2022-09-14T06:28:46.122Z,86.20
2022-09-14T06:31:14.577Z,86.20
2022-09-14T06:33:45.491Z,86.30
2022-09-14T06:36:15.891Z,86.30
2022-09-14T06:38:45.100Z,86.30
2022-09-14T06:41:14.779Z,86.30
2022-09-14T06:43:43.757Z,86.20
2022-09-14T06:46:14.690Z,86.20
2022-09-14T06:48:45.359Z,86.20
2022-09-14T06:51:16.119Z,86.20
2022-09-14T06:53:45.993Z,86.20
2022-09-14T06:56:14.584Z,86.20
2022-09-14T06:58:42.993Z,86.20
2022-09-14T07:01:13.123Z,86.30
2022-09-14T07:03:41.240Z,86.30
2022-09-14T07:06:10.841Z,86.30
2022-09-14T07:08:40.352Z,86.30
2022-09-14T07:11:11.387Z,86.30
2022-09-14T07:13:39.632Z,86.30
2022-09-14T07:16:08.022Z,86.20
2022-09-14T07:18:36.324Z,86.30
2022-09-14T07:21:05.830Z,86.20
2022-09-14T07:23:33.834Z,86.30
2022-09-14T07:26:04.238Z,86.30
2022-09-14T07:28:33.856Z,86.30
2022-09-14T07:31:02.515Z,86.30
2022-09-14T07:33:31.103Z,86.30
2022-09-14T07:36:06.694Z,86.30
2022-09-14T07:38:48.565Z,86.30
2022-09-14T07:41:20.213Z,86.40
2022-09-14T07:43:51.031Z,86.40
2022-09-14T07:46:19.678Z,86.40
2022-09-14T07:48:48.882Z,86.50
2022-09-14T07:51:17.771Z,86.50
2022-09-14T07:53:45.886Z,86.50
2022-09-14T07:56:16.548Z,86.50
2022-09-14T07:58:44.979Z,86.50
2022-09-14T08:01:17.850Z,86.40
2022-09-14T08:03:48.961Z,86.40
2022-09-14T08:06:19.106Z,86.40
2022-09-14T08:08:48.697Z,86.50
2022-09-14T08:11:19.373Z,86.50
2022-09-14T08:13:50.522Z,86.60
2022-09-14T08:16:20.736Z,86.50
2022-09-14T08:18:49.625Z,86.50
2022-09-14T08:21:18.576Z,86.50
2022-09-14T08:23:46.501Z,86.40
2022-09-14T08:26:15.778Z,86.40
2022-09-14T08:28:44.257Z,86.40
2022-09-14T08:31:13.584Z,86.30
2022-09-14T08:33:45.181Z,86.30
2022-09-14T08:36:14.552Z,86.40
2022-09-14T08:38:42.697Z,86.40
2022-09-14T08:41:19.367Z,86.50
2022-09-14T08:43:48.048Z,86.40
2022-09-14T08:46:26.661Z,86.40
2022-09-14T08:48:55.820Z,86.40
2022-09-14T08:51:23.874Z,86.30
2022-09-14T08:53:53.427Z,86.30
2022-09-14T08:56:25.399Z,86.30
2022-09-14T08:59:09.183Z,86.30
2022-09-14T09:01:44.066Z,86.30
2022-09-14T09:04:31.216Z,86.30
2022-09-14T09:07:06.599Z,86.20
2022-09-14T09:09:43.504Z,86.30
2022-09-14T09:12:15.924Z,86.20
2022-09-14T09:14:48.014Z,86.20
2022-09-14T09:17:19.237Z,86.30
2022-09-14T09:19:57.659Z,86.40
2022-09-14T09:22:29.668Z,86.40
2022-09-14T09:24:59.108Z,86.40
2022-09-14T09:27:27.918Z,86.50
2022-09-14T09:29:56.017Z,86.30
2022-09-14T09:32:28.295Z,86.30
2022-09-14T09:35:20.905Z,86.30
2022-09-14T09:38:01.018Z,86.30
2022-09-14T09:40:36.226Z,86.30
2022-09-14T09:43:09.838Z,86.30
2022-09-14T09:45:54.546Z,86.30
2022-09-14T09:48:26.129Z,86.20
2022-09-14T09:51:05.834Z,86.20
2022-09-14T09:53:35.569Z,86.20
2022-09-14T09:56:04.088Z,86.10
2022-09-14T09:58:35.580Z,86.10
2022-09-14T10:01:10.053Z,86.10
2022-09-14T10:03:41.595Z,86.10
2022-09-14T10:06:14.778Z,86.10
2022-09-14T10:08:44.848Z,86.10
2022-09-14T10:11:32.025Z,86.20
2022-09-14T10:14:00.319Z,86.20
2022-09-14T10:16:35.538Z,86.20
2022-09-14T10:19:04.356Z,86.20
2022-09-14T10:21:33.580Z,86.20
2022-09-14T10:24:07.992Z,86.20
2022-09-14T10:26:37.888Z,86.10
2022-09-14T10:29:35.319Z,86.10
2022-09-14T10:32:12.527Z,86.10
2022-09-14T10:34:40.437Z,86.30
2022-09-14T10:37:25.070Z,86.30
2022-09-14T10:40:05.533Z,86.30
2022-09-14T10:42:40.796Z,86.40
2022-09-14T10:45:19.305Z,86.40
2022-09-14T10:48:06.235Z,86.50
2022-09-14T10:50:46.066Z,86.50
2022-09-14T10:53:29.258Z,86.50
2022-09-14T10:56:03.847Z,86.50
2022-09-14T10:58:45.136Z,86.30
2022-09-14T11:01:32.177Z,86.20
2022-09-14T11:04:18.267Z,86.10
2022-09-14T11:06:55.006Z,86.10
2022-09-14T11:09:27.669Z,86.10
2022-09-14T11:12:09.731Z,86.00
2022-09-14T11:15:04.567Z,86.00
2022-09-14T11:17:49.224Z,86.10
2022-09-14T11:20:31.551Z,86.10
2022-09-14T11:23:12.953Z,86.10
2022-09-14T11:25:46.855Z,86.20
2022-09-14T11:28:20.023Z,86.30
2022-09-14T11:30:52.059Z,86.40
2022-09-14T11:33:30.917Z,86.30
2022-09-14T11:36:05.051Z,86.10
2022-09-14T11:38:37.032Z,86.10
2022-09-14T11:41:15.061Z,86.10
2022-09-14T11:43:48.883Z,86.20
2022-09-14T11:46:22.396Z,86.20
2022-09-14T11:48:55.873Z,86.20
2022-09-14T11:51:27.673Z,86.20
2022-09-14T11:53:55.798Z,86.30
2022-09-14T11:56:28.112Z,86.40
2022-09-14T11:58:57.893Z,86.30
2022-09-14T12:01:29.742Z,86.40
2022-09-14T12:04:24.469Z,86.40
2022-09-14T12:06:55.128Z,86.40
2022-09-14T12:09:40.455Z,86.40
2022-09-14T12:12:36.266Z,86.40
2022-09-14T12:15:20.380Z,86.40
2022-09-14T12:17:48.713Z,86.40
2022-09-14T12:20:44.374Z,86.40
2022-09-14T12:23:32.741Z,86.20
2022-09-14T12:26:34.144Z,86.20
2022-09-14T12:29:21.843Z,86.20
2022-09-14T12:32:05.450Z,86.10
2022-09-14T12:34:34.377Z,86.00
2022-09-14T12:37:27.564Z,86.00
2022-09-14T12:40:32.217Z,85.90
2022-09-14T12:43:48.085Z,85.90
2022-09-14T12:46:38.850Z,86.00
2022-09-14T12:49:39.601Z,86.00
2022-09-14T12:52:32.036Z,86.00
2022-09-14T12:55:16.990Z,86.00
2022-09-14T12:57:55.342Z,86.00
2022-09-14T13:00:23.640Z,86.00
2022-09-14T13:03:14.527Z,86.00
2022-09-14T13:05:45.984Z,86.00
2022-09-14T13:08:18.315Z,86.00
2022-09-14T13:10:49.820Z,86.00
2022-09-14T13:13:20.298Z,86.00
2022-09-14T13:15:56.745Z,86.10
2022-09-14T13:18:37.635Z,86.10
2022-09-14T13:21:19.947Z,86.10
2022-09-14T13:23:48.496Z,86.20
2022-09-14T13:26:20.695Z,86.10
2022-09-14T13:28:51.219Z,86.20
2022-09-14T13:31:22.165Z,86.20
2022-09-14T13:33:53.211Z,86.20
2022-09-14T13:36:25.111Z,86.20
2022-09-14T13:38:53.819Z,86.20
2022-09-14T13:41:23.865Z,86.30
2022-09-14T13:43:55.177Z,86.20
2022-09-14T13:46:24.126Z,86.30
2022-09-14T13:48:53.947Z,86.30
2022-09-14T13:51:26.281Z,86.40
2022-09-14T13:53:56.268Z,86.50
2022-09-14T13:56:31.121Z,86.50
2022-09-14T13:59:21.485Z,86.50
2022-09-14T14:01:58.621Z,86.50
2022-09-14T14:04:36.890Z,86.60
2022-09-14T14:07:17.246Z,86.70
2022-09-14T14:09:50.614Z,86.80
2022-09-14T14:12:25.685Z,86.80
2022-09-14T14:14:55.312Z,86.80
2022-09-14T14:17:25.712Z,86.90
2022-09-14T14:19:56.971Z,86.90
2022-09-14T14:22:28.470Z,86.90
2022-09-14T14:25:14.550Z,86.90
2022-09-14T14:27:44.547Z,86.90
2022-09-14T14:30:16.135Z,87.00
2022-09-14T14:32:44.309Z,87.00
2022-09-14T14:35:19.910Z,87.10
2022-09-14T14:37:48.719Z,87.10
2022-09-14T14:40:18.002Z,87.10
2022-09-14T14:42:46.606Z,87.30
2022-09-14T14:45:19.165Z,87.30
2022-09-14T14:47:47.438Z,87.40
2022-09-14T14:50:18.756Z,87.50
2022-09-14T14:52:46.718Z,87.50
2022-09-14T14:55:14.837Z,87.50
2022-09-14T14:57:42.766Z,87.60
2022-09-14T15:00:16.173Z,87.70
2022-09-14T15:02:44.253Z,87.70
2022-09-14T15:05:12.657Z,87.70
2022-09-14T15:07:42.247Z,87.70
2022-09-14T15:10:15.068Z,87.80
2022-09-14T15:12:43.650Z,87.80
2022-09-14T15:15:14.520Z,87.80
2022-09-14T15:17:42.679Z,87.80
2022-09-14T15:20:11.215Z,87.70
2022-09-14T15:22:42.416Z,87.70
2022-09-14T15:25:11.704Z,87.70
2022-09-14T15:27:40.315Z,87.70
2022-09-14T15:30:11.233Z,87.80
2022-09-14T15:32:39.952Z,87.80
2022-09-14T15:35:09.766Z,87.80
2022-09-14T15:37:37.692Z,87.70
2022-09-14T15:40:08.357Z,87.70
2022-09-14T15:42:36.400Z,87.70
2022-09-14T15:45:04.685Z,87.80
2022-09-14T15:47:36.277Z,87.80
2022-09-14T15:50:05.899Z,87.60
2022-09-14T15:52:36.087Z,87.60
2022-09-14T15:55:04.712Z,87.60
2022-09-14T15:57:34.946Z,87.70
2022-09-14T16:00:05.336Z,87.70
2022-09-14T16:02:41.126Z,87.70
2022-09-14T16:05:10.141Z,87.70
2022-09-14T16:07:38.016Z,87.70
2022-09-14T16:10:07.705Z,87.70
2022-09-14T16:12:36.890Z,87.70
2022-09-14T16:15:05.081Z,87.70
2022-09-14T16:17:32.915Z,87.80
2022-09-14T16:20:01.712Z,87.80
2022-09-14T16:22:29.579Z,87.80
2022-09-14T16:24:57.425Z,87.80
2022-09-14T16:27:25.715Z,87.70
2022-09-14T16:29:55.093Z,87.70
2022-09-14T16:32:23.097Z,87.70
2022-09-14T16:34:51.143Z,87.80
2022-09-14T16:37:19.010Z,87.70
2022-09-14T16:39:49.051Z,87.60
2022-09-14T16:42:17.098Z,87.60
2022-09-14T16:44:44.984Z,87.60
2022-09-14T16:47:14.178Z,87.60
2022-09-14T16:49:42.056Z,87.60
2022-09-14T16:52:09.903Z,87.60
2022-09-14T16:54:37.749Z,87.50
2022-09-14T16:57:05.650Z,87.40
2022-09-14T16:59:33.683Z,87.40
2022-09-14T17:02:01.626Z,87.40
2022-09-14T17:04:32.113Z,87.50
2022-09-14T17:07:00.424Z,87.40
2022-09-14T17:09:30.178Z,87.40
2022-09-14T17:11:59.750Z,87.30
2022-09-14T17:14:30.453Z,87.30
2022-09-14T17:17:02.520Z,87.20
2022-09-14T17:19:34.726Z,87.20
2022-09-14T17:22:03.828Z,87.10
2022-09-14T17:24:31.779Z,87.10
2022-09-14T17:26:59.618Z,87.00
2022-09-14T17:29:28.412Z,87.10
2022-09-14T17:31:56.581Z,87.00
2022-09-14T17:34:24.657Z,87.00
2022-09-14T17:36:53.921Z,86.90
2022-09-14T17:39:21.892Z,86.90
2022-09-14T17:41:49.810Z,86.90
2022-09-14T17:44:17.969Z,86.90
2022-09-14T17:46:51.964Z,86.90
2022-09-14T17:49:22.519Z,86.80
2022-09-14T17:51:50.801Z,86.80
2022-09-14T17:54:20.816Z,86.70
2022-09-14T17:56:48.825Z,86.70
2022-09-14T17:59:20.157Z,86.70
2022-09-14T18:01:48.943Z,86.60
2022-09-14T18:04:17.003Z,86.60
2022-09-14T18:06:48.255Z,86.50
2022-09-14T18:09:18.379Z,86.40
2022-09-14T18:11:48.336Z,86.30
2022-09-14T18:14:17.137Z,86.20
2022-09-14T18:16:45.934Z,86.20
2022-09-14T18:19:14.775Z,86.20
2022-09-14T18:21:43.138Z,86.20
2022-09-14T18:24:12.208Z,86.20
2022-09-14T18:26:40.074Z,86.20
2022-09-14T18:29:09.236Z,86.20
2022-09-14T18:31:38.319Z,86.10
2022-09-14T18:34:08.266Z,86.10
2022-09-14T18:36:36.947Z,86.10
2022-09-14T18:39:05.004Z,86.10
2022-09-14T18:41:34.104Z,86.10
2022-09-14T18:44:02.769Z,86.00
2022-09-14T18:46:32.850Z,85.90
2022-09-14T18:49:02.382Z,85.90
2022-09-14T18:51:32.007Z,85.90
2022-09-14T18:54:03.174Z,85.90
2022-09-14T18:56:33.124Z,85.90
2022-09-14T18:59:01.890Z,86.00
2022-09-14T19:01:31.417Z,86.00
2022-09-14T19:03:59.441Z,85.90
2022-09-14T19:06:27.505Z,85.80
2022-09-14T19:08:55.845Z,85.80
2022-09-14T19:11:26.653Z,85.80
2022-09-14T19:13:57.401Z,85.80
2022-09-14T19:16:25.728Z,85.80
2022-09-14T19:18:55.484Z,85.90
2022-09-14T19:21:26.311Z,85.90
2022-09-14T19:24:00.869Z,85.90
2022-09-14T19:26:30.484Z,85.90
2022-09-14T19:29:00.736Z,85.90
2022-09-14T19:31:30.593Z,85.90
2022-09-14T19:34:01.076Z,85.90
2022-09-14T19:36:30.151Z,85.90
2022-09-14T19:39:01.785Z,85.90
2022-09-14T19:41:30.430Z,85.80
2022-09-14T19:43:58.652Z,85.80
2022-09-14T19:46:26.923Z,85.90
2022-09-14T19:48:55.158Z,85.90
2022-09-14T19:51:26.918Z,85.90
2022-09-14T19:53:56.317Z,85.80
2022-09-14T19:56:30.938Z,85.90
2022-09-14T19:59:02.041Z,85.90
2022-09-14T20:01:32.091Z,85.90
2022-09-14T20:04:00.010Z,85.90
2022-09-14T20:06:31.770Z,85.90
2022-09-14T20:09:01.321Z,85.90
2022-09-14T20:11:31.240Z,85.90
2022-09-14T20:14:00.699Z,86.00
2022-09-14T20:16:30.934Z,85.90
2022-09-14T20:19:02.868Z,85.90
2022-09-14T20:21:32.148Z,85.90
2022-09-14T20:24:17.880Z,85.90
2022-09-14T20:26:46.711Z,85.90
2022-09-14T20:29:16.260Z,85.80
2022-09-14T20:31:44.753Z,85.80
2022-09-14T20:34:13.399Z,85.90
2022-09-14T20:36:43.148Z,85.90
2022-09-14T20:39:11.705Z,85.80
2022-09-14T20:41:40.003Z,85.90
2022-09-14T20:44:08.266Z,85.90
2022-09-14T20:46:39.021Z,85.80
2022-09-14T20:49:09.920Z,85.80
2022-09-14T20:51:38.219Z,85.80
2022-09-14T20:54:08.858Z,85.70
2022-09-14T20:56:39.659Z,85.60
2022-09-14T20:59:09.545Z,85.50
2022-09-14T21:01:40.868Z,85.50
2022-09-14T21:04:11.143Z,85.40
2022-09-14T21:06:41.274Z,85.50
2022-09-14T21:09:11.473Z,85.50
2022-09-14T21:11:39.668Z,85.50
2022-09-14T21:14:07.798Z,85.50
2022-09-14T21:16:37.976Z,85.50
2022-09-14T21:19:07.652Z,85.60
2022-09-14T21:21:36.140Z,85.60
2022-09-14T21:24:05.759Z,85.70
2022-09-14T21:26:36.104Z,85.60
2022-09-14T21:29:08.932Z,85.60
2022-09-14T21:31:38.697Z,85.50
2022-09-14T21:34:09.978Z,85.60
2022-09-14T21:36:40.118Z,85.60
2022-09-14T21:39:09.965Z,85.50
2022-09-14T21:41:41.056Z,85.50
2022-09-14T21:44:09.212Z,85.60
2022-09-14T21:46:37.146Z,85.60
2022-09-14T21:49:05.256Z,85.60
2022-09-14T21:51:34.907Z,85.60
2022-09-14T21:54:05.020Z,85.60
2022-09-14T21:56:34.619Z,85.50
2022-09-14T21:59:08.403Z,85.50
2022-09-14T22:01:36.911Z,85.50
2022-09-14T22:04:06.432Z,85.50
2022-09-14T22:06:35.019Z,85.50
2022-09-14T22:09:02.931Z,85.50
2022-09-14T22:11:33.014Z,85.40
2022-09-14T22:14:04.318Z,85.50
2022-09-14T22:16:34.087Z,85.50
2022-09-14T22:19:04.083Z,85.60
2022-09-14T22:21:33.715Z,85.60
2022-09-14T22:24:03.389Z,85.60
2022-09-14T22:26:34.157Z,85.60
2022-09-14T22:29:03.704Z,85.60
2022-09-14T22:31:33.108Z,85.70
2022-09-14T22:34:01.177Z,85.80
2022-09-14T22:36:29.672Z,85.70
2022-09-14T22:38:58.574Z,85.70
2022-09-14T22:41:28.378Z,85.70
2022-09-14T22:43:57.003Z,85.70
2022-09-14T22:46:26.425Z,85.80
2022-09-14T22:48:54.784Z,85.80
2022-09-14T22:51:26.312Z,85.80
2022-09-14T22:53:54.520Z,85.70
2022-09-14T22:56:25.350Z,85.70
2022-09-14T22:58:53.674Z,85.70
2022-09-14T23:01:23.816Z,85.70
2022-09-14T23:03:58.623Z,85.80
2022-09-14T23:06:28.027Z,85.70
2022-09-14T23:08:55.963Z,85.70
2022-09-14T23:11:23.940Z,85.60
2022-09-14T23:13:51.803Z,85.50
2022-09-14T23:16:23.125Z,85.60
2022-09-14T23:18:52.451Z,85.60
2022-09-14T23:21:22.263Z,85.60
2022-09-14T23:23:53.103Z,85.50
2022-09-14T23:26:21.243Z,85.50
2022-09-14T23:28:52.539Z,85.50
2022-09-14T23:31:20.626Z,85.50
2022-09-14T23:33:50.852Z,85.50
2022-09-14T23:36:19.358Z,85.40
2022-09-14T23:38:49.020Z,85.40
2022-09-14T23:41:17.604Z,85.40
2022-09-14T23:43:45.802Z,85.40
2022-09-14T23:46:13.829Z,85.30
2022-09-14T23:48:42.210Z,85.20
2022-09-14T23:51:11.514Z,85.20
2022-09-14T23:53:40.212Z,85.20
2022-09-14T23:56:10.094Z,85.20
2022-09-14T23:58:38.216Z,85.20
